createdAt,value
2023-05-25T00:00:57.432Z,0.00
2023-05-25T00:01:44.319Z,0.00
2023-05-25T00:02:43.243Z,0.00
2023-05-25T00:03:43.123Z,0.00
2023-05-25T00:04:43.112Z,0.00
2023-05-25T00:05:43.212Z,0.00
2023-05-25T00:06:43.005Z,0.00
2023-05-25T00:07:42.964Z,0.00
2023-05-25T00:08:43.011Z,0.00
2023-05-25T00:09:42.990Z,0.00
2023-05-25T00:10:42.941Z,0.00
2023-05-25T00:11:42.925Z,0.00
2023-05-25T00:12:42.920Z,0.00
2023-05-25T00:13:42.951Z,0.00
2023-05-25T00:14:42.886Z,0.00
2023-05-25T00:15:43.046Z,0.00
2023-05-25T00:16:42.894Z,0.00
2023-05-25T00:17:42.877Z,0.00
2023-05-25T00:18:42.887Z,0.00
2023-05-25T00:19:42.830Z,0.00
2023-05-25T00:20:42.887Z,0.00
2023-05-25T00:21:42.809Z,0.00
2023-05-25T00:22:42.835Z,0.00
2023-05-25T00:23:42.833Z,0.00
2023-05-25T00:24:42.776Z,0.00
2023-05-25T00:25:43.058Z,0.00
2023-05-25T00:26:42.734Z,0.00
2023-05-25T00:27:42.780Z,0.00
2023-05-25T00:28:42.741Z,0.00
2023-05-25T00:29:42.694Z,0.00
2023-05-25T00:30:42.736Z,0.00
2023-05-25T00:31:42.700Z,0.00
2023-05-25T00:32:42.769Z,0.00
2023-05-25T00:33:42.669Z,0.00
2023-05-25T00:34:42.681Z,0.00
2023-05-25T00:35:42.925Z,0.00
2023-05-25T00:36:42.699Z,0.00
2023-05-25T00:37:42.722Z,0.00
2023-05-25T00:38:42.617Z,0.00
2023-05-25T00:39:42.633Z,0.00
2023-05-25T00:40:42.611Z,0.00
2023-05-25T00:41:42.640Z,0.00
2023-05-25T00:42:42.583Z,0.00
2023-05-25T00:43:42.557Z,0.00
2023-05-25T00:44:42.563Z,0.00
2023-05-25T00:45:42.829Z,0.00
2023-05-25T00:46:42.671Z,0.00
2023-05-25T00:47:42.552Z,0.00
2023-05-25T00:48:42.527Z,0.00
2023-05-25T00:49:42.508Z,0.00
2023-05-25T00:50:42.555Z,0.00
2023-05-25T00:51:42.533Z,0.00
2023-05-25T00:52:42.502Z,0.00
2023-05-25T00:53:42.454Z,0.00
2023-05-25T00:54:42.458Z,0.00
2023-05-25T00:55:42.614Z,0.00
2023-05-25T00:56:42.411Z,0.00
2023-05-25T00:57:42.402Z,0.00
2023-05-25T00:58:42.398Z,0.00
2023-05-25T00:59:42.390Z,0.00
2023-05-25T01:00:42.453Z,0.00
2023-05-25T01:01:42.373Z,0.00
2023-05-25T01:02:42.477Z,0.00
2023-05-25T01:03:42.402Z,0.00
2023-05-25T01:04:42.385Z,0.00
2023-05-25T01:05:42.576Z,0.00
2023-05-25T01:06:42.335Z,0.00
2023-05-25T01:07:42.307Z,0.00
2023-05-25T01:08:42.305Z,0.00
2023-05-25T01:09:42.329Z,0.00
2023-05-25T01:10:42.269Z,0.00
2023-05-25T01:11:42.249Z,0.00
2023-05-25T01:12:42.246Z,0.00
2023-05-25T01:13:42.240Z,0.00
2023-05-25T01:14:42.271Z,0.00
2023-05-25T01:15:42.426Z,0.00
2023-05-25T01:16:42.221Z,0.00
2023-05-25T01:17:42.199Z,0.00
2023-05-25T01:18:42.266Z,0.00
2023-05-25T01:19:42.215Z,0.00
2023-05-25T01:20:42.198Z,0.00
2023-05-25T01:21:42.270Z,0.00
2023-05-25T01:22:42.145Z,0.00
2023-05-25T01:23:42.144Z,0.00
2023-05-25T01:24:42.085Z,0.00
2023-05-25T01:25:42.297Z,0.00
2023-05-25T01:26:42.112Z,0.00
2023-05-25T01:27:42.115Z,0.00
2023-05-25T01:28:42.115Z,0.00
2023-05-25T01:29:42.065Z,0.00
2023-05-25T01:30:42.045Z,0.00
2023-05-25T01:31:42.064Z,0.00
2023-05-25T01:32:42.103Z,0.00
2023-05-25T01:33:42.004Z,0.00
2023-05-25T01:34:42.026Z,0.00
2023-05-25T01:35:42.224Z,0.00
2023-05-25T01:36:41.978Z,0.00
2023-05-25T01:37:42.027Z,0.00
2023-05-25T01:38:41.964Z,0.00
2023-05-25T01:39:41.934Z,0.00
2023-05-25T01:40:41.922Z,0.00
2023-05-25T01:41:41.907Z,0.00
2023-05-25T01:42:41.936Z,0.00
2023-05-25T01:43:41.899Z,0.00
2023-05-25T01:44:41.887Z,0.00
2023-05-25T01:45:42.048Z,0.00
2023-05-25T01:46:41.877Z,0.00
2023-05-25T01:47:41.907Z,0.00
2023-05-25T01:48:41.822Z,0.00
2023-05-25T01:49:41.806Z,0.00
2023-05-25T01:50:41.813Z,0.00
2023-05-25T01:51:41.889Z,0.00
2023-05-25T01:52:41.824Z,0.00
2023-05-25T01:53:41.757Z,0.00
2023-05-25T01:54:41.771Z,0.00
2023-05-25T01:55:41.842Z,0.00
2023-05-25T01:56:41.803Z,0.00
2023-05-25T01:57:41.731Z,0.00
2023-05-25T01:58:41.714Z,0.00
2023-05-25T01:59:41.688Z,0.00
2023-05-25T02:00:41.729Z,0.00
2023-05-25T02:01:41.769Z,0.00
2023-05-25T02:02:41.703Z,0.00
2023-05-25T02:03:41.698Z,0.00
2023-05-25T02:04:41.750Z,0.00
2023-05-25T02:05:41.962Z,0.00
2023-05-25T02:06:41.664Z,0.00
2023-05-25T02:07:41.621Z,0.00
2023-05-25T02:08:41.609Z,0.00
2023-05-25T02:09:41.584Z,0.00
2023-05-25T02:10:41.624Z,0.00
2023-05-25T02:11:41.572Z,0.00
2023-05-25T02:12:41.549Z,4.00
2023-05-25T02:13:41.563Z,4.00
2023-05-25T02:14:41.536Z,4.00
2023-05-25T02:15:41.750Z,0.00
2023-05-25T02:16:41.512Z,0.00
2023-05-25T02:17:41.569Z,4.00
2023-05-25T02:18:41.500Z,4.00
2023-05-25T02:19:41.536Z,4.00
2023-05-25T02:20:41.531Z,4.00
2023-05-25T02:21:41.453Z,4.00
2023-05-25T02:22:41.440Z,8.00
2023-05-25T02:23:41.434Z,8.00
2023-05-25T02:24:41.470Z,8.00
2023-05-25T02:25:41.504Z,12.00
2023-05-25T02:26:41.412Z,12.00
2023-05-25T02:27:41.382Z,12.00
2023-05-25T02:28:41.371Z,12.00
2023-05-25T02:29:41.415Z,16.00
2023-05-25T02:30:41.375Z,20.00
2023-05-25T02:31:41.377Z,20.00
2023-05-25T02:32:41.354Z,24.00
2023-05-25T02:33:41.339Z,28.00
2023-05-25T02:34:41.371Z,32.00
2023-05-25T02:35:41.437Z,36.00
2023-05-25T02:36:41.287Z,40.00
2023-05-25T02:37:41.283Z,44.00
2023-05-25T02:38:41.304Z,48.00
2023-05-25T02:39:41.324Z,56.00
2023-05-25T02:40:41.249Z,64.00
2023-05-25T02:41:41.236Z,72.00
2023-05-25T02:42:41.264Z,80.00
2023-05-25T02:43:41.281Z,92.00
2023-05-25T02:44:41.199Z,100.00
2023-05-25T02:45:41.312Z,112.00
2023-05-25T02:46:41.245Z,124.00
2023-05-25T02:47:41.208Z,132.00
2023-05-25T02:48:41.212Z,148.00
2023-05-25T02:49:41.134Z,160.00
2023-05-25T02:50:41.113Z,180.00
2023-05-25T02:51:41.112Z,196.00
2023-05-25T02:52:41.145Z,216.00
2023-05-25T02:53:41.156Z,232.00
2023-05-25T02:54:41.104Z,248.00
2023-05-25T02:55:41.094Z,272.00
2023-05-25T02:56:41.074Z,296.00
2023-05-25T02:57:41.107Z,320.00
2023-05-25T02:58:41.055Z,348.00
2023-05-25T02:59:41.065Z,376.00
2023-05-25T03:00:41.032Z,404.00
2023-05-25T03:01:41.025Z,436.00
2023-05-25T03:02:41.076Z,472.00
2023-05-25T03:03:41.046Z,512.00
2023-05-25T03:04:40.976Z,548.00
2023-05-25T03:05:41.004Z,588.00
2023-05-25T03:06:40.974Z,632.00
2023-05-25T03:07:40.997Z,676.00
2023-05-25T03:08:40.922Z,720.00
2023-05-25T03:09:40.925Z,764.00
2023-05-25T03:10:40.900Z,816.00
2023-05-25T03:11:40.960Z,868.00
2023-05-25T03:12:40.954Z,920.00
2023-05-25T03:13:40.879Z,972.00
2023-05-25T03:14:40.866Z,1028.00
2023-05-25T03:15:40.865Z,1084.00
2023-05-25T03:16:40.959Z,1140.00
2023-05-25T03:17:40.872Z,1200.00
2023-05-25T03:18:40.795Z,1260.00
2023-05-25T03:19:40.841Z,1320.00
2023-05-25T03:20:40.828Z,1384.00
2023-05-25T03:21:40.841Z,1448.00
2023-05-25T03:22:40.772Z,1512.00
2023-05-25T03:23:40.778Z,1576.00
2023-05-25T03:24:40.747Z,1640.00
2023-05-25T03:25:40.739Z,1708.00
2023-05-25T03:26:40.762Z,1776.00
2023-05-25T03:27:40.703Z,1848.00
2023-05-25T03:28:40.708Z,1920.00
2023-05-25T03:29:40.700Z,1992.00
2023-05-25T03:30:40.728Z,2064.00
2023-05-25T03:31:40.821Z,2136.00
2023-05-25T03:32:40.673Z,2208.00
2023-05-25T03:33:40.662Z,2284.00
2023-05-25T03:34:40.648Z,2360.00
2023-05-25T03:35:40.678Z,2436.00
2023-05-25T03:36:40.608Z,2512.00
2023-05-25T03:37:40.630Z,2592.00
2023-05-25T03:38:40.602Z,2676.00
2023-05-25T03:39:40.636Z,2752.00
2023-05-25T03:40:40.624Z,2836.00
2023-05-25T03:41:40.567Z,2908.00
2023-05-25T03:42:40.562Z,2976.00
2023-05-25T03:43:40.541Z,3056.00
2023-05-25T03:44:41.353Z,3136.00
2023-05-25T03:45:40.521Z,3216.00
2023-05-25T03:46:40.561Z,3292.00
2023-05-25T03:47:40.504Z,3368.00
2023-05-25T03:48:40.471Z,3444.00
2023-05-25T03:49:40.519Z,3520.00
2023-05-25T03:50:40.456Z,3592.00
2023-05-25T03:51:40.465Z,3668.00
2023-05-25T03:52:40.457Z,3744.00
2023-05-25T03:53:40.437Z,3824.00
2023-05-25T03:54:40.482Z,3900.00
2023-05-25T03:55:40.423Z,3972.00
2023-05-25T03:56:40.403Z,4048.00
2023-05-25T03:57:40.382Z,4124.00
2023-05-25T03:58:40.403Z,4192.00
2023-05-25T03:59:40.418Z,4276.00
2023-05-25T04:00:40.343Z,4352.00
2023-05-25T04:01:40.355Z,4420.00
2023-05-25T04:02:40.429Z,4484.00
2023-05-25T04:03:40.488Z,4552.00
2023-05-25T04:04:40.372Z,4624.00
2023-05-25T04:05:40.331Z,4704.00
2023-05-25T04:06:40.287Z,5016.00
2023-05-25T04:07:40.261Z,5548.00
2023-05-25T04:08:40.318Z,5856.00
2023-05-25T04:09:40.264Z,5980.00
2023-05-25T04:10:40.272Z,6100.00
2023-05-25T04:11:40.233Z,6204.00
2023-05-25T04:12:40.248Z,6288.00
2023-05-25T04:13:40.262Z,6384.00
2023-05-25T04:14:40.200Z,6460.00
2023-05-25T04:15:40.158Z,6564.00
2023-05-25T04:16:40.178Z,6672.00
2023-05-25T04:17:40.206Z,6796.00
2023-05-25T04:18:40.160Z,6936.00
2023-05-25T04:19:40.141Z,7076.00
2023-05-25T04:20:40.156Z,7220.00
2023-05-25T04:21:40.120Z,7372.00
2023-05-25T04:22:40.152Z,7500.00
2023-05-25T04:23:40.093Z,7628.00
2023-05-25T04:24:40.073Z,7728.00
2023-05-25T04:25:40.078Z,7824.00
2023-05-25T04:26:40.110Z,7952.00
2023-05-25T04:27:40.095Z,8140.00
2023-05-25T04:28:40.026Z,8308.00
2023-05-25T04:29:40.035Z,8396.00
2023-05-25T04:30:40.009Z,8556.00
2023-05-25T04:31:40.084Z,8728.00
2023-05-25T04:32:40.079Z,8920.00
2023-05-25T04:33:39.974Z,9100.00
2023-05-25T04:34:39.947Z,9180.00
2023-05-25T04:35:40.000Z,9252.00
2023-05-25T04:36:39.988Z,9336.00
2023-05-25T04:37:39.954Z,9460.00
2023-05-25T04:38:39.919Z,9524.00
2023-05-25T04:39:39.922Z,9616.00
2023-05-25T04:40:39.944Z,9792.00
2023-05-25T04:41:39.884Z,9932.00
2023-05-25T04:42:39.910Z,10056.00
2023-05-25T04:43:46.550Z,10220.00
2023-05-25T04:44:40.871Z,10508.00
2023-05-25T04:45:39.922Z,10800.00
2023-05-25T04:46:39.830Z,11104.00
2023-05-25T04:47:39.859Z,11324.00
2023-05-25T04:48:39.787Z,11360.00
2023-05-25T04:49:39.832Z,11376.00
2023-05-25T04:50:39.827Z,11496.00
2023-05-25T04:51:39.791Z,11536.00
2023-05-25T04:52:39.751Z,11600.00
2023-05-25T04:53:39.745Z,11732.00
2023-05-25T04:54:39.775Z,11776.00
2023-05-25T04:55:39.746Z,11836.00
2023-05-25T04:56:39.703Z,11916.00
2023-05-25T04:57:39.698Z,12048.00
2023-05-25T04:58:39.694Z,12200.00
2023-05-25T04:59:39.744Z,12248.00
2023-05-25T05:00:39.672Z,12268.00
2023-05-25T05:01:39.692Z,12320.00
2023-05-25T05:02:39.696Z,12336.00
2023-05-25T05:03:39.720Z,12404.00
2023-05-25T05:04:39.669Z,12436.00
2023-05-25T05:05:39.612Z,12528.00
2023-05-25T05:06:39.628Z,12500.00
2023-05-25T05:07:39.593Z,12468.00
2023-05-25T05:08:39.642Z,12404.00
2023-05-25T05:09:39.597Z,12424.00
2023-05-25T05:10:39.529Z,12396.00
2023-05-25T05:11:39.529Z,12536.00
2023-05-25T05:12:39.513Z,12360.00
2023-05-25T05:13:39.553Z,12188.00
2023-05-25T05:14:39.519Z,12216.00
2023-05-25T05:15:39.488Z,12080.00
2023-05-25T05:16:39.531Z,11844.00
2023-05-25T05:17:39.649Z,11648.00
2023-05-25T05:18:39.520Z,11564.00
2023-05-25T05:19:39.466Z,11328.00
2023-05-25T05:20:39.506Z,11000.00
2023-05-25T05:21:39.426Z,10612.00
2023-05-25T05:22:39.523Z,10468.00
2023-05-25T05:23:39.454Z,10408.00
2023-05-25T05:24:39.407Z,10160.00
2023-05-25T05:25:39.390Z,9968.00
2023-05-25T05:26:55.600Z,9876.00
2023-05-25T05:27:40.411Z,9792.00
2023-05-25T05:28:39.353Z,9692.00
2023-05-25T05:29:39.348Z,9652.00
2023-05-25T05:30:39.335Z,9600.00
2023-05-25T05:31:39.446Z,9580.00
2023-05-25T05:32:39.363Z,9536.00
2023-05-25T05:33:39.404Z,9492.00
2023-05-25T05:34:39.271Z,9452.00
2023-05-25T05:35:39.313Z,9412.00
2023-05-25T05:36:53.082Z,9392.00
2023-05-25T05:37:40.251Z,9372.00
2023-05-25T05:38:40.034Z,9344.00
2023-05-25T05:39:39.212Z,9312.00
2023-05-25T05:40:39.210Z,9312.00
2023-05-25T05:41:39.236Z,9272.00
2023-05-25T05:42:39.180Z,9212.00
2023-05-25T05:43:39.171Z,9180.00
2023-05-25T05:44:39.167Z,9216.00
2023-05-25T05:45:39.207Z,9236.00
2023-05-25T05:46:39.239Z,9232.00
2023-05-25T05:47:39.175Z,9236.00
2023-05-25T05:48:39.108Z,9240.00
2023-05-25T05:49:39.119Z,9220.00
2023-05-25T05:50:41.748Z,9208.00
2023-05-25T05:51:39.071Z,9212.00
2023-05-25T05:52:39.076Z,9208.00
2023-05-25T05:53:39.081Z,9220.00
2023-05-25T05:54:39.059Z,9228.00
2023-05-25T05:55:39.110Z,9228.00
2023-05-25T05:56:39.041Z,9184.00
2023-05-25T05:57:39.019Z,9172.00
2023-05-25T05:58:39.018Z,9168.00
2023-05-25T05:59:39.063Z,9172.00
2023-05-25T06:00:39.050Z,9192.00
2023-05-25T06:01:38.986Z,9208.00
2023-05-25T06:02:41.386Z,9220.00
2023-05-25T06:03:38.960Z,9236.00
2023-05-25T06:04:39.031Z,9252.00
2023-05-25T06:05:38.992Z,9280.00
2023-05-25T06:06:38.907Z,9300.00
2023-05-25T06:07:38.921Z,9320.00
2023-05-25T06:08:38.878Z,9344.00
2023-05-25T06:09:38.919Z,9376.00
2023-05-25T06:10:38.891Z,9408.00
2023-05-25T06:11:38.881Z,9432.00
2023-05-25T06:12:38.863Z,9444.00
2023-05-25T06:13:38.870Z,9460.00
2023-05-25T06:14:38.861Z,9472.00
2023-05-25T06:15:38.817Z,9484.00
2023-05-25T06:16:38.869Z,9496.00
2023-05-25T06:17:38.831Z,9556.00
2023-05-25T06:18:38.843Z,9568.00
2023-05-25T06:19:38.807Z,9580.00
2023-05-25T06:20:38.792Z,9596.00
2023-05-25T06:21:38.755Z,9612.00
2023-05-25T06:22:38.742Z,9624.00
2023-05-25T06:23:38.758Z,9644.00
2023-05-25T06:24:38.711Z,9664.00
2023-05-25T06:25:38.732Z,9680.00
2023-05-25T06:26:38.698Z,9820.00
2023-05-25T06:27:38.740Z,9840.00
2023-05-25T06:28:38.717Z,9864.00
2023-05-25T06:29:38.659Z,9872.00
2023-05-25T06:30:38.689Z,9888.00
2023-05-25T06:31:38.667Z,9904.00
2023-05-25T06:32:38.717Z,9916.00
2023-05-25T06:33:38.651Z,9932.00
2023-05-25T06:34:38.605Z,9940.00
2023-05-25T06:35:38.575Z,9956.00
2023-05-25T06:36:38.573Z,9976.00
2023-05-25T06:37:38.642Z,10000.00
2023-05-25T06:38:38.582Z,10040.00
2023-05-25T06:39:38.562Z,10072.00
2023-05-25T06:40:38.521Z,10108.00
2023-05-25T06:41:38.596Z,10144.00
2023-05-25T06:42:38.561Z,10176.00
2023-05-25T06:43:38.514Z,10220.00
2023-05-25T06:44:38.560Z,10260.00
2023-05-25T06:45:38.484Z,10312.00
2023-05-25T06:46:38.590Z,10360.00
2023-05-25T06:47:39.128Z,10404.00
2023-05-25T06:48:38.452Z,10440.00
2023-05-25T06:49:38.450Z,10476.00
2023-05-25T06:50:38.457Z,10508.00
2023-05-25T06:51:38.469Z,10556.00
2023-05-25T06:52:38.391Z,10600.00
2023-05-25T06:53:38.389Z,10644.00
2023-05-25T06:54:38.712Z,10708.00
2023-05-25T06:55:38.419Z,10764.00
2023-05-25T06:56:38.413Z,10828.00
2023-05-25T06:57:38.352Z,10880.00
2023-05-25T06:58:38.333Z,10932.00
2023-05-25T06:59:38.351Z,10988.00
2023-05-25T07:00:38.388Z,11036.00
2023-05-25T07:01:38.364Z,11096.00
2023-05-25T07:02:38.326Z,11156.00
2023-05-25T07:03:38.275Z,11216.00
2023-05-25T07:04:38.310Z,11268.00
2023-05-25T07:05:38.308Z,11308.00
2023-05-25T07:06:38.254Z,11368.00
2023-05-25T07:07:38.222Z,11432.00
2023-05-25T07:08:38.222Z,11484.00
2023-05-25T07:09:38.257Z,11548.00
2023-05-25T07:10:38.248Z,11600.00
2023-05-25T07:11:38.194Z,11684.00
2023-05-25T07:12:38.169Z,11744.00
2023-05-25T07:13:38.145Z,11816.00
2023-05-25T07:14:38.204Z,11876.00
2023-05-25T07:15:38.146Z,11944.00
2023-05-25T07:16:38.215Z,12024.00
2023-05-25T07:17:38.153Z,12120.00
2023-05-25T07:18:38.126Z,12228.00
2023-05-25T07:19:38.149Z,12336.00
2023-05-25T07:20:38.245Z,12432.00
2023-05-25T07:21:38.090Z,12524.00
2023-05-25T07:22:38.065Z,12604.00
2023-05-25T07:23:38.113Z,12692.00
2023-05-25T07:24:38.116Z,12784.00
2023-05-25T07:25:38.090Z,12888.00
2023-05-25T07:26:38.048Z,13000.00
2023-05-25T07:27:38.039Z,13120.00
2023-05-25T07:28:38.065Z,13252.00
2023-05-25T07:29:37.999Z,13412.00
2023-05-25T07:30:37.986Z,13552.00
2023-05-25T07:31:37.985Z,13744.00
2023-05-25T07:32:38.002Z,13984.00
2023-05-25T07:33:38.007Z,14280.00
2023-05-25T07:34:37.980Z,14652.00
2023-05-25T07:35:37.937Z,14932.00
2023-05-25T07:36:37.927Z,15272.00
2023-05-25T07:37:37.979Z,15888.00
2023-05-25T07:38:37.958Z,16608.00
2023-05-25T07:39:37.879Z,17632.00
2023-05-25T07:40:37.900Z,19040.00
2023-05-25T07:41:37.881Z,20384.00
2023-05-25T07:42:37.949Z,22208.00
2023-05-25T07:43:37.837Z,24704.00
2023-05-25T07:44:37.829Z,28640.00
2023-05-25T07:45:37.834Z,35680.00
2023-05-25T07:46:37.838Z,51424.00
2023-05-25T07:47:37.979Z,68992.00
2023-05-25T07:48:37.795Z,78464.00
2023-05-25T07:49:37.793Z,84256.00
2023-05-25T07:50:37.768Z,87072.00
2023-05-25T07:51:37.828Z,83488.00
2023-05-25T07:52:37.796Z,82912.00
2023-05-25T07:53:37.828Z,81248.00
2023-05-25T07:54:37.798Z,80064.00
2023-05-25T07:55:37.710Z,82688.00
2023-05-25T07:56:37.739Z,84896.00
2023-05-25T07:57:37.715Z,84704.00
2023-05-25T07:58:37.653Z,76512.00
2023-05-25T07:59:37.627Z,80864.00
2023-05-25T08:00:37.684Z,80800.00
2023-05-25T08:01:37.704Z,78304.00
2023-05-25T08:02:37.854Z,78528.00
2023-05-25T08:03:48.923Z,81056.00
2023-05-25T08:04:38.788Z,79648.00
2023-05-25T08:05:37.685Z,77280.00
2023-05-25T08:06:37.638Z,77792.00
2023-05-25T08:07:38.283Z,78656.00
2023-05-25T08:08:37.551Z,75296.00
2023-05-25T08:09:37.583Z,17236.00
2023-05-25T08:10:37.658Z,55200.00
2023-05-25T08:11:37.561Z,65632.00
2023-05-25T08:12:47.058Z,75872.00
2023-05-25T08:13:38.539Z,75232.00
2023-05-25T08:14:37.528Z,72288.00
2023-05-25T08:15:37.516Z,71168.00
2023-05-25T08:16:37.492Z,71904.00
2023-05-25T08:17:37.499Z,72192.00
2023-05-25T08:18:37.478Z,73024.00
2023-05-25T08:19:37.487Z,72160.00
2023-05-25T08:20:37.535Z,71936.00
2023-05-25T08:21:37.431Z,71136.00
2023-05-25T08:22:37.411Z,70240.00
2023-05-25T08:23:37.401Z,69088.00
2023-05-25T08:24:37.479Z,67552.00
2023-05-25T08:25:37.390Z,68384.00
2023-05-25T08:26:53.141Z,70784.00
2023-05-25T08:27:38.354Z,70272.00
2023-05-25T08:28:37.334Z,56288.00
2023-05-25T08:29:37.358Z,54368.00
2023-05-25T08:30:37.332Z,55488.00
2023-05-25T08:31:37.423Z,72288.00
2023-05-25T08:32:37.325Z,74624.00
2023-05-25T08:33:37.341Z,75552.00
2023-05-25T08:34:37.305Z,74976.00
2023-05-25T08:35:37.248Z,45216.00
2023-05-25T08:36:37.254Z,23680.00
2023-05-25T08:37:37.241Z,20000.00
2023-05-25T08:38:37.278Z,18656.00
2023-05-25T08:39:37.239Z,18560.00
2023-05-25T08:40:37.221Z,21120.00
2023-05-25T08:41:37.202Z,22528.00
2023-05-25T08:42:37.198Z,24480.00
2023-05-25T08:43:37.214Z,43616.00
2023-05-25T08:44:37.166Z,75648.00
2023-05-25T08:45:40.564Z,32736.00
2023-05-25T08:46:38.137Z,79168.00
2023-05-25T08:47:37.182Z,77504.00
2023-05-25T08:48:41.507Z,79104.00
2023-05-25T08:49:38.147Z,79328.00
2023-05-25T08:50:37.116Z,80512.00
2023-05-25T08:51:37.123Z,80288.00
2023-05-25T08:52:37.144Z,78112.00
2023-05-25T08:53:37.066Z,31936.00
2023-05-25T08:54:37.025Z,29664.00
2023-05-25T08:55:37.036Z,30144.00
2023-05-25T08:56:37.188Z,29952.00
2023-05-25T08:57:37.052Z,29248.00
2023-05-25T08:58:37.012Z,33856.00
2023-05-25T08:59:37.021Z,78080.00
2023-05-25T09:00:36.988Z,27776.00
2023-05-25T09:01:37.048Z,25312.00
2023-05-25T09:02:37.087Z,25216.00
2023-05-25T09:03:37.070Z,25408.00
2023-05-25T09:04:36.963Z,25152.00
2023-05-25T09:05:38.182Z,26560.00
2023-05-25T09:06:37.000Z,55488.00
2023-05-25T09:07:36.952Z,23616.00
2023-05-25T09:08:36.899Z,23040.00
2023-05-25T09:09:36.880Z,21248.00
2023-05-25T09:10:36.928Z,21312.00
2023-05-25T09:11:40.400Z,23232.00
2023-05-25T09:12:36.867Z,75872.00
2023-05-25T09:13:36.838Z,76832.00
2023-05-25T09:14:36.837Z,78912.00
2023-05-25T09:15:36.877Z,79136.00
2023-05-25T09:16:36.878Z,79552.00
2023-05-25T09:17:38.290Z,81248.00
2023-05-25T09:18:36.843Z,82432.00
2023-05-25T09:19:36.771Z,82944.00
2023-05-25T09:20:36.950Z,32704.00
2023-05-25T09:21:36.781Z,82592.00
2023-05-25T09:22:36.752Z,80704.00
2023-05-25T09:23:36.715Z,79648.00
2023-05-25T09:24:36.713Z,42592.00
2023-05-25T09:25:36.746Z,25472.00
2023-05-25T09:26:36.732Z,22848.00
2023-05-25T09:27:36.737Z,19520.00
2023-05-25T09:28:36.703Z,16748.00
2023-05-25T09:29:36.740Z,15972.00
2023-05-25T09:30:36.764Z,15320.00
2023-05-25T09:31:36.662Z,15640.00
2023-05-25T09:32:36.671Z,16852.00
2023-05-25T09:33:37.235Z,18528.00
2023-05-25T09:34:36.694Z,52320.00
2023-05-25T09:35:36.623Z,88512.00
2023-05-25T09:36:36.678Z,86592.00
2023-05-25T09:37:36.709Z,85824.00
2023-05-25T09:38:36.755Z,84512.00
2023-05-25T09:39:36.825Z,84608.00
2023-05-25T09:40:36.589Z,88320.00
2023-05-25T09:41:36.557Z,92992.00
2023-05-25T09:42:36.576Z,93536.00
2023-05-25T09:43:44.508Z,93504.00
2023-05-25T09:44:37.578Z,93664.00
2023-05-25T09:45:38.187Z,95008.00
2023-05-25T09:46:36.569Z,71904.00
2023-05-25T09:47:36.587Z,30368.00
2023-05-25T09:48:36.516Z,29344.00
2023-05-25T09:49:36.451Z,34080.00
2023-05-25T09:50:36.431Z,28032.00
2023-05-25T09:51:36.425Z,26528.00
2023-05-25T09:52:36.435Z,26144.00
2023-05-25T09:53:36.474Z,25504.00
2023-05-25T09:54:36.417Z,25056.00
2023-05-25T09:55:51.336Z,24928.00
2023-05-25T09:56:37.395Z,24416.00
2023-05-25T09:57:36.400Z,24000.00
2023-05-25T09:58:36.471Z,23648.00
2023-05-25T09:59:36.359Z,23520.00
2023-05-25T10:00:36.348Z,23872.00
2023-05-25T10:01:36.376Z,24160.00
2023-05-25T10:02:36.411Z,24352.00
2023-05-25T10:03:36.321Z,24768.00
2023-05-25T10:04:36.347Z,25120.00
2023-05-25T10:05:36.261Z,26080.00
2023-05-25T10:06:36.292Z,28192.00
2023-05-25T10:07:36.293Z,46144.00
2023-05-25T10:08:36.258Z,92256.00
2023-05-25T10:09:36.236Z,95264.00
2023-05-25T10:10:36.252Z,99200.00
2023-05-25T10:11:36.319Z,98912.00
2023-05-25T10:12:36.285Z,87360.00
2023-05-25T10:13:36.193Z,29728.00
2023-05-25T10:14:36.214Z,26752.00
2023-05-25T10:15:36.204Z,26304.00
2023-05-25T10:16:36.309Z,28352.00
2023-05-25T10:17:36.175Z,44544.00
2023-05-25T10:18:36.148Z,98624.00
2023-05-25T10:19:36.156Z,99200.00
2023-05-25T10:20:36.170Z,98016.00
2023-05-25T10:21:36.171Z,99168.00
2023-05-25T10:22:36.109Z,97344.00
2023-05-25T10:23:36.096Z,96384.00
2023-05-25T10:24:36.110Z,96928.00
2023-05-25T10:25:36.144Z,96704.00
2023-05-25T10:26:36.122Z,99904.00
2023-05-25T10:27:36.088Z,35840.00
2023-05-25T10:28:36.044Z,29184.00
2023-05-25T10:29:36.030Z,29728.00
2023-05-25T10:30:36.084Z,76128.00
2023-05-25T10:31:36.014Z,98880.00
2023-05-25T10:32:36.029Z,99936.00
2023-05-25T10:33:36.020Z,100288.00
2023-05-25T10:34:35.984Z,99648.00
2023-05-25T10:35:42.483Z,97408.00
2023-05-25T10:36:36.979Z,55520.00
2023-05-25T10:37:35.932Z,25952.00
2023-05-25T10:38:35.920Z,23616.00
2023-05-25T10:39:35.962Z,22656.00
2023-05-25T10:40:35.949Z,23264.00
2023-05-25T10:41:35.902Z,85344.00
2023-05-25T10:42:35.909Z,101184.00
2023-05-25T10:43:35.872Z,100832.00
2023-05-25T10:44:35.898Z,101408.00
2023-05-25T10:45:35.838Z,100800.00
2023-05-25T10:46:35.877Z,102208.00
2023-05-25T10:47:35.847Z,101664.00
2023-05-25T10:48:35.823Z,104256.00
2023-05-25T10:49:35.870Z,107680.00
2023-05-25T10:50:35.819Z,110176.00
2023-05-25T10:51:35.808Z,112384.00
2023-05-25T10:52:35.792Z,112608.00
2023-05-25T10:53:35.829Z,114432.00
2023-05-25T10:54:35.812Z,118560.00
2023-05-25T10:55:35.798Z,118048.00
2023-05-25T10:56:35.836Z,116736.00
2023-05-25T10:57:35.774Z,116704.00
2023-05-25T10:58:35.791Z,114624.00
2023-05-25T10:59:35.756Z,111968.00
2023-05-25T11:00:35.794Z,108896.00
2023-05-25T11:01:35.769Z,29568.00
2023-05-25T11:02:35.682Z,24544.00
2023-05-25T11:03:35.731Z,23040.00
2023-05-25T11:04:35.713Z,24832.00
2023-05-25T11:05:35.669Z,104960.00
2023-05-25T11:06:35.612Z,104512.00
2023-05-25T11:07:35.680Z,103680.00
2023-05-25T11:08:35.682Z,102656.00
2023-05-25T11:09:35.631Z,102496.00
2023-05-25T11:10:35.644Z,101728.00
2023-05-25T11:11:35.581Z,100864.00
2023-05-25T11:12:35.667Z,101760.00
2023-05-25T11:13:37.754Z,103200.00
2023-05-25T11:14:35.560Z,103520.00
2023-05-25T11:15:35.563Z,104096.00
2023-05-25T11:16:35.594Z,104896.00
2023-05-25T11:17:36.153Z,106144.00
2023-05-25T11:18:35.537Z,108128.00
2023-05-25T11:19:35.532Z,109536.00
2023-05-25T11:20:35.551Z,111904.00
2023-05-25T11:21:35.501Z,115808.00
2023-05-25T11:22:35.530Z,116992.00
2023-05-25T11:23:35.467Z,118272.00
2023-05-25T11:24:35.509Z,119456.00
2023-05-25T11:25:36.965Z,120544.00
2023-05-25T11:26:35.838Z,122016.00
2023-05-25T11:27:35.559Z,122720.00
2023-05-25T11:28:35.740Z,124640.00
2023-05-25T11:29:35.977Z,127264.00
2023-05-25T11:30:35.762Z,123424.00
2023-05-25T11:31:40.590Z,121152.00
2023-05-25T11:32:36.734Z,119264.00
2023-05-25T11:33:35.540Z,119488.00
2023-05-25T11:34:36.625Z,119360.00
2023-05-25T11:35:37.755Z,118624.00
2023-05-25T11:36:36.777Z,119584.00
2023-05-25T11:37:36.130Z,102592.00
2023-05-25T11:38:35.507Z,120224.00
2023-05-25T11:39:37.036Z,109920.00
2023-05-25T11:40:39.331Z,110016.00
2023-05-25T11:41:35.537Z,107552.00
2023-05-25T11:42:36.058Z,108736.00
2023-05-25T11:43:38.574Z,106880.00
2023-05-25T11:44:37.577Z,106144.00
2023-05-25T11:45:35.549Z,105696.00
2023-05-25T11:46:37.329Z,103808.00
2023-05-25T11:47:35.989Z,106016.00
2023-05-25T11:48:35.411Z,106368.00
2023-05-25T11:49:36.357Z,106816.00
2023-05-25T11:50:49.635Z,112416.00
2023-05-25T11:51:35.350Z,115840.00
2023-05-25T11:52:36.815Z,37568.00
2023-05-25T11:53:35.432Z,65632.00
2023-05-25T11:54:36.316Z,67392.00
2023-05-25T11:55:35.412Z,123488.00
2023-05-25T11:56:36.193Z,122592.00
2023-05-25T11:57:35.318Z,111552.00
2023-05-25T11:58:36.638Z,74144.00
2023-05-25T11:59:36.654Z,87552.00
2023-05-25T12:00:38.718Z,53632.00
2023-05-25T12:01:35.551Z,49696.00
2023-05-25T12:02:35.425Z,121280.00
2023-05-25T12:03:35.606Z,115456.00
2023-05-25T12:04:35.537Z,102784.00
2023-05-25T12:05:35.490Z,118112.00
2023-05-25T12:06:35.755Z,84960.00
2023-05-25T12:07:35.439Z,113280.00